sensor_id;sensor_type;location;lat;lon;timestamp;P1;durP1;ratioP1;P2;durP2;ratioP2
6149;SDS011;3106;42.670;23.318;2023-11-22T00:01:02;50.33;;;22.60;;
6149;SDS011;3106;42.670;23.318;2023-11-22T00:03:29;51.57;;;22.90;;
6149;SDS011;3106;42.670;23.318;2023-11-22T00:05:56;45.47;;;22.63;;
6149;SDS011;3106;42.670;23.318;2023-11-22T00:08:23;52.07;;;24.20;;
6149;SDS011;3106;42.670;23.318;2023-11-22T00:10:51;46.40;;;22.50;;
6149;SDS011;3106;42.670;23.318;2023-11-22T00:13:18;47.37;;;22.10;;
6149;SDS011;3106;42.670;23.318;2023-11-22T00:15:45;40.40;;;20.67;;
6149;SDS011;3106;42.670;23.318;2023-11-22T00:18:12;47.60;;;22.67;;
6149;SDS011;3106;42.670;23.318;2023-11-22T00:20:39;44.93;;;22.80;;
6149;SDS011;3106;42.670;23.318;2023-11-22T00:23:05;44.50;;;22.13;;
6149;SDS011;3106;42.670;23.318;2023-11-22T00:25:33;46.33;;;21.70;;
6149;SDS011;3106;42.670;23.318;2023-11-22T00:28:01;45.10;;;21.40;;
6149;SDS011;3106;42.670;23.318;2023-11-22T00:30:31;44.40;;;21.10;;
6149;SDS011;3106;42.670;23.318;2023-11-22T00:32:59;45.20;;;23.00;;
6149;SDS011;3106;42.670;23.318;2023-11-22T00:35:26;48.00;;;24.00;;
6149;SDS011;3106;42.670;23.318;2023-11-22T00:37:52;53.73;;;24.90;;
6149;SDS011;3106;42.670;23.318;2023-11-22T00:40:19;45.40;;;23.70;;
6149;SDS011;3106;42.670;23.318;2023-11-22T00:42:46;47.50;;;24.80;;
6149;SDS011;3106;42.670;23.318;2023-11-22T00:45:14;50.87;;;22.70;;
6149;SDS011;3106;42.670;23.318;2023-11-22T00:47:41;47.40;;;22.30;;
6149;SDS011;3106;42.670;23.318;2023-11-22T00:50:08;45.60;;;22.77;;
6149;SDS011;3106;42.670;23.318;2023-11-22T00:52:36;48.37;;;23.07;;
6149;SDS011;3106;42.670;23.318;2023-11-22T00:55:03;44.27;;;22.20;;
6149;SDS011;3106;42.670;23.318;2023-11-22T00:57:30;40.77;;;22.27;;
6149;SDS011;3106;42.670;23.318;2023-11-22T00:59:57;44.97;;;22.60;;
6149;SDS011;3106;42.670;23.318;2023-11-22T01:02:25;44.80;;;22.00;;
6149;SDS011;3106;42.670;23.318;2023-11-22T01:04:52;45.63;;;22.47;;
6149;SDS011;3106;42.670;23.318;2023-11-22T01:07:19;63.63;;;23.97;;
6149;SDS011;3106;42.670;23.318;2023-11-22T01:09:46;51.93;;;23.33;;
6149;SDS011;3106;42.670;23.318;2023-11-22T01:12:13;48.67;;;25.50;;
6149;SDS011;3106;42.670;23.318;2023-11-22T01:14:39;44.90;;;22.83;;
6149;SDS011;3106;42.670;23.318;2023-11-22T01:17:07;50.40;;;24.43;;
6149;SDS011;3106;42.670;23.318;2023-11-22T01:19:35;47.23;;;23.80;;
6149;SDS011;3106;42.670;23.318;2023-11-22T01:22:02;45.50;;;20.80;;
6149;SDS011;3106;42.670;23.318;2023-11-22T01:24:29;44.17;;;21.67;;
6149;SDS011;3106;42.670;23.318;2023-11-22T01:26:56;45.80;;;23.20;;
6149;SDS011;3106;42.670;23.318;2023-11-22T01:29:23;45.33;;;20.30;;
6149;SDS011;3106;42.670;23.318;2023-11-22T01:31:49;37.77;;;21.10;;
6149;SDS011;3106;42.670;23.318;2023-11-22T01:34:16;40.77;;;20.60;;
6149;SDS011;3106;42.670;23.318;2023-11-22T01:36:44;35.83;;;20.10;;
6149;SDS011;3106;42.670;23.318;2023-11-22T01:39:11;41.10;;;21.23;;
6149;SDS011;3106;42.670;23.318;2023-11-22T01:41:39;31.97;;;19.37;;
6149;SDS011;3106;42.670;23.318;2023-11-22T01:44:07;40.80;;;21.40;;
6149;SDS011;3106;42.670;23.318;2023-11-22T01:46:34;46.20;;;21.33;;
6149;SDS011;3106;42.670;23.318;2023-11-22T01:49:01;39.13;;;20.43;;
6149;SDS011;3106;42.670;23.318;2023-11-22T01:51:28;42.47;;;20.50;;
6149;SDS011;3106;42.670;23.318;2023-11-22T01:53:57;39.33;;;20.13;;
6149;SDS011;3106;42.670;23.318;2023-11-22T01:56:26;42.33;;;20.67;;
6149;SDS011;3106;42.670;23.318;2023-11-22T01:58:53;41.77;;;21.97;;
6149;SDS011;3106;42.670;23.318;2023-11-22T02:01:22;43.03;;;21.40;;
6149;SDS011;3106;42.670;23.318;2023-11-22T02:03:49;42.40;;;20.43;;
6149;SDS011;3106;42.670;23.318;2023-11-22T02:06:17;53.33;;;21.90;;
6149;SDS011;3106;42.670;23.318;2023-11-22T02:08:44;41.23;;;20.40;;
6149;SDS011;3106;42.670;23.318;2023-11-22T02:11:12;46.40;;;22.17;;
6149;SDS011;3106;42.670;23.318;2023-11-22T02:13:47;40.47;;;21.10;;
6149;SDS011;3106;42.670;23.318;2023-11-22T02:16:13;36.73;;;19.80;;
6149;SDS011;3106;42.670;23.318;2023-11-22T02:18:40;33.90;;;19.00;;
6149;SDS011;3106;42.670;23.318;2023-11-22T02:21:09;36.57;;;19.43;;
6149;SDS011;3106;42.670;23.318;2023-11-22T02:23:37;38.03;;;19.53;;
6149;SDS011;3106;42.670;23.318;2023-11-22T02:26:04;43.17;;;20.33;;
6149;SDS011;3106;42.670;23.318;2023-11-22T02:28:31;40.33;;;20.00;;
6149;SDS011;3106;42.670;23.318;2023-11-22T02:30:58;44.07;;;20.13;;
6149;SDS011;3106;42.670;23.318;2023-11-22T02:33:25;39.80;;;20.53;;
6149;SDS011;3106;42.670;23.318;2023-11-22T02:35:52;36.47;;;19.00;;
6149;SDS011;3106;42.670;23.318;2023-11-22T02:38:19;35.97;;;18.07;;
6149;SDS011;3106;42.670;23.318;2023-11-22T02:40:48;38.43;;;18.80;;
6149;SDS011;3106;42.670;23.318;2023-11-22T02:43:15;34.30;;;17.77;;
6149;SDS011;3106;42.670;23.318;2023-11-22T02:45:42;35.03;;;17.30;;
6149;SDS011;3106;42.670;23.318;2023-11-22T02:48:09;36.43;;;17.30;;
6149;SDS011;3106;42.670;23.318;2023-11-22T02:50:36;43.17;;;18.93;;
6149;SDS011;3106;42.670;23.318;2023-11-22T02:53:04;35.47;;;17.90;;
6149;SDS011;3106;42.670;23.318;2023-11-22T02:55:31;36.03;;;18.07;;
6149;SDS011;3106;42.670;23.318;2023-11-22T02:57:59;33.13;;;16.50;;
6149;SDS011;3106;42.670;23.318;2023-11-22T03:00:27;36.30;;;17.80;;
6149;SDS011;3106;42.670;23.318;2023-11-22T03:02:54;32.93;;;17.40;;
6149;SDS011;3106;42.670;23.318;2023-11-22T03:05:22;34.53;;;18.63;;
6149;SDS011;3106;42.670;23.318;2023-11-22T03:07:49;34.00;;;17.13;;
6149;SDS011;3106;42.670;23.318;2023-11-22T03:10:16;36.47;;;17.27;;
6149;SDS011;3106;42.670;23.318;2023-11-22T03:12:44;39.53;;;17.60;;
6149;SDS011;3106;42.670;23.318;2023-11-22T03:15:13;34.67;;;18.03;;
6149;SDS011;3106;42.670;23.318;2023-11-22T03:17:40;37.97;;;18.70;;
6149;SDS011;3106;42.670;23.318;2023-11-22T03:20:07;36.00;;;17.90;;
6149;SDS011;3106;42.670;23.318;2023-11-22T03:22:36;29.53;;;16.30;;
6149;SDS011;3106;42.670;23.318;2023-11-22T03:25:04;34.17;;;16.77;;
6149;SDS011;3106;42.670;23.318;2023-11-22T03:27:32;31.67;;;17.60;;
6149;SDS011;3106;42.670;23.318;2023-11-22T03:29:59;36.20;;;18.10;;
6149;SDS011;3106;42.670;23.318;2023-11-22T03:32:27;28.73;;;15.80;;
6149;SDS011;3106;42.670;23.318;2023-11-22T03:34:54;28.50;;;16.07;;
6149;SDS011;3106;42.670;23.318;2023-11-22T03:37:22;33.53;;;17.20;;
6149;SDS011;3106;42.670;23.318;2023-11-22T03:39:49;38.57;;;17.17;;
6149;SDS011;3106;42.670;23.318;2023-11-22T03:42:16;33.80;;;16.30;;
6149;SDS011;3106;42.670;23.318;2023-11-22T03:44:43;33.17;;;16.37;;
6149;SDS011;3106;42.670;23.318;2023-11-22T03:47:10;39.27;;;18.47;;
6149;SDS011;3106;42.670;23.318;2023-11-22T03:49:40;29.93;;;15.97;;
6149;SDS011;3106;42.670;23.318;2023-11-22T03:52:08;31.17;;;16.13;;
6149;SDS011;3106;42.670;23.318;2023-11-22T03:54:34;30.53;;;16.10;;
6149;SDS011;3106;42.670;23.318;2023-11-22T03:57:01;31.87;;;16.50;;
6149;SDS011;3106;42.670;23.318;2023-11-22T03:59:28;34.27;;;16.73;;
6149;SDS011;3106;42.670;23.318;2023-11-22T04:01:55;27.90;;;16.17;;
6149;SDS011;3106;42.670;23.318;2023-11-22T04:04:22;34.13;;;16.00;;
6149;SDS011;3106;42.670;23.318;2023-11-22T04:06:51;31.33;;;17.37;;
6149;SDS011;3106;42.670;23.318;2023-11-22T04:09:18;34.43;;;17.47;;
6149;SDS011;3106;42.670;23.318;2023-11-22T04:11:45;33.23;;;17.10;;
6149;SDS011;3106;42.670;23.318;2023-11-22T04:14:13;32.27;;;16.40;;
6149;SDS011;3106;42.670;23.318;2023-11-22T04:16:39;30.93;;;15.80;;
6149;SDS011;3106;42.670;23.318;2023-11-22T04:19:06;31.50;;;15.73;;
6149;SDS011;3106;42.670;23.318;2023-11-22T04:21:33;35.43;;;16.53;;
6149;SDS011;3106;42.670;23.318;2023-11-22T04:24:02;33.03;;;16.70;;
6149;SDS011;3106;42.670;23.318;2023-11-22T04:26:29;36.53;;;17.00;;
6149;SDS011;3106;42.670;23.318;2023-11-22T04:28:56;31.13;;;17.17;;
6149;SDS011;3106;42.670;23.318;2023-11-22T04:31:24;38.23;;;18.00;;
6149;SDS011;3106;42.670;23.318;2023-11-22T04:33:51;37.07;;;19.30;;
6149;SDS011;3106;42.670;23.318;2023-11-22T04:36:19;32.90;;;17.97;;
6149;SDS011;3106;42.670;23.318;2023-11-22T04:38:47;32.93;;;17.23;;
6149;SDS011;3106;42.670;23.318;2023-11-22T04:41:16;32.50;;;17.30;;
6149;SDS011;3106;42.670;23.318;2023-11-22T04:43:43;34.50;;;18.37;;
6149;SDS011;3106;42.670;23.318;2023-11-22T04:46:10;35.20;;;18.73;;
6149;SDS011;3106;42.670;23.318;2023-11-22T04:48:38;34.30;;;18.13;;
6149;SDS011;3106;42.670;23.318;2023-11-22T04:51:05;33.03;;;17.67;;
6149;SDS011;3106;42.670;23.318;2023-11-22T04:53:32;37.50;;;18.80;;
6149;SDS011;3106;42.670;23.318;2023-11-22T04:55:59;32.80;;;18.40;;
6149;SDS011;3106;42.670;23.318;2023-11-22T04:58:31;31.00;;;17.00;;
6149;SDS011;3106;42.670;23.318;2023-11-22T05:00:58;33.80;;;18.10;;
6149;SDS011;3106;42.670;23.318;2023-11-22T05:03:26;33.17;;;19.07;;
6149;SDS011;3106;42.670;23.318;2023-11-22T05:05:53;36.00;;;16.80;;
6149;SDS011;3106;42.670;23.318;2023-11-22T05:08:20;34.30;;;17.23;;
6149;SDS011;3106;42.670;23.318;2023-11-22T05:10:47;33.23;;;18.20;;
6149;SDS011;3106;42.670;23.318;2023-11-22T05:13:14;32.60;;;17.07;;
6149;SDS011;3106;42.670;23.318;2023-11-22T05:15:42;28.67;;;17.00;;
6149;SDS011;3106;42.670;23.318;2023-11-22T05:18:09;33.27;;;17.77;;
6149;SDS011;3106;42.670;23.318;2023-11-22T05:20:36;33.23;;;16.70;;
6149;SDS011;3106;42.670;23.318;2023-11-22T05:23:03;27.00;;;16.17;;
6149;SDS011;3106;42.670;23.318;2023-11-22T05:25:30;33.90;;;16.90;;
6149;SDS011;3106;42.670;23.318;2023-11-22T05:27:57;31.37;;;17.70;;
6149;SDS011;3106;42.670;23.318;2023-11-22T05:30:24;32.23;;;16.83;;
6149;SDS011;3106;42.670;23.318;2023-11-22T05:32:53;35.93;;;16.80;;
6149;SDS011;3106;42.670;23.318;2023-11-22T05:35:20;30.53;;;17.07;;
6149;SDS011;3106;42.670;23.318;2023-11-22T05:37:47;45.13;;;18.67;;
6149;SDS011;3106;42.670;23.318;2023-11-22T05:40:14;37.07;;;18.63;;
6149;SDS011;3106;42.670;23.318;2023-11-22T05:42:41;34.93;;;18.00;;
6149;SDS011;3106;42.670;23.318;2023-11-22T05:45:08;56.87;;;27.73;;
6149;SDS011;3106;42.670;23.318;2023-11-22T05:47:35;34.67;;;19.53;;
6149;SDS011;3106;42.670;23.318;2023-11-22T05:50:04;34.23;;;17.50;;
6149;SDS011;3106;42.670;23.318;2023-11-22T05:52:32;29.17;;;16.10;;
6149;SDS011;3106;42.670;23.318;2023-11-22T05:54:59;37.10;;;18.27;;
6149;SDS011;3106;42.670;23.318;2023-11-22T05:57:28;31.57;;;16.80;;
6149;SDS011;3106;42.670;23.318;2023-11-22T05:59:55;31.57;;;16.90;;
6149;SDS011;3106;42.670;23.318;2023-11-22T06:02:22;33.13;;;17.50;;
6149;SDS011;3106;42.670;23.318;2023-11-22T06:04:49;29.83;;;16.93;;
6149;SDS011;3106;42.670;23.318;2023-11-22T06:07:17;33.33;;;17.73;;
6149;SDS011;3106;42.670;23.318;2023-11-22T06:09:44;37.77;;;17.00;;
6149;SDS011;3106;42.670;23.318;2023-11-22T06:12:11;32.57;;;17.33;;
6149;SDS011;3106;42.670;23.318;2023-11-22T06:14:38;36.73;;;17.53;;
6149;SDS011;3106;42.670;23.318;2023-11-22T06:17:05;38.20;;;19.00;;
6149;SDS011;3106;42.670;23.318;2023-11-22T06:19:32;31.80;;;18.07;;
6149;SDS011;3106;42.670;23.318;2023-11-22T06:21:58;38.30;;;18.20;;
6149;SDS011;3106;42.670;23.318;2023-11-22T06:24:27;31.03;;;17.87;;
6149;SDS011;3106;42.670;23.318;2023-11-22T06:26:54;42.90;;;19.97;;
6149;SDS011;3106;42.670;23.318;2023-11-22T06:29:21;34.07;;;19.00;;
6149;SDS011;3106;42.670;23.318;2023-11-22T06:31:49;38.70;;;19.40;;
6149;SDS011;3106;42.670;23.318;2023-11-22T06:34:16;41.23;;;18.90;;
6149;SDS011;3106;42.670;23.318;2023-11-22T06:36:43;36.40;;;18.57;;
6149;SDS011;3106;42.670;23.318;2023-11-22T06:39:09;27.50;;;16.50;;
6149;SDS011;3106;42.670;23.318;2023-11-22T06:41:40;30.70;;;17.13;;
6149;SDS011;3106;42.670;23.318;2023-11-22T06:44:07;38.27;;;17.90;;
6149;SDS011;3106;42.670;23.318;2023-11-22T06:46:34;37.57;;;19.83;;
6149;SDS011;3106;42.670;23.318;2023-11-22T06:49:02;35.17;;;19.40;;
6149;SDS011;3106;42.670;23.318;2023-11-22T06:51:30;37.53;;;19.67;;
6149;SDS011;3106;42.670;23.318;2023-11-22T06:53:57;35.17;;;20.83;;
6149;SDS011;3106;42.670;23.318;2023-11-22T06:56:23;32.10;;;17.00;;
6149;SDS011;3106;42.670;23.318;2023-11-22T06:58:52;32.90;;;18.57;;
6149;SDS011;3106;42.670;23.318;2023-11-22T07:01:22;32.03;;;20.03;;
6149;SDS011;3106;42.670;23.318;2023-11-22T07:03:49;35.90;;;20.17;;
6149;SDS011;3106;42.670;23.318;2023-11-22T07:06:17;30.60;;;16.13;;
6149;SDS011;3106;42.670;23.318;2023-11-22T07:08:44;24.13;;;13.20;;
6149;SDS011;3106;42.670;23.318;2023-11-22T07:11:11;35.90;;;18.37;;
6149;SDS011;3106;42.670;23.318;2023-11-22T07:13:39;43.10;;;19.73;;
6149;SDS011;3106;42.670;23.318;2023-11-22T07:16:07;42.33;;;20.10;;
6149;SDS011;3106;42.670;23.318;2023-11-22T07:18:34;32.10;;;17.53;;
6149;SDS011;3106;42.670;23.318;2023-11-22T07:21:02;33.80;;;16.20;;
6149;SDS011;3106;42.670;23.318;2023-11-22T07:23:30;32.73;;;16.70;;
6149;SDS011;3106;42.670;23.318;2023-11-22T07:25:57;31.33;;;16.53;;
6149;SDS011;3106;42.670;23.318;2023-11-22T07:28:24;31.37;;;15.30;;
6149;SDS011;3106;42.670;23.318;2023-11-22T07:30:51;29.20;;;14.60;;
6149;SDS011;3106;42.670;23.318;2023-11-22T07:33:19;27.47;;;16.10;;
6149;SDS011;3106;42.670;23.318;2023-11-22T07:35:46;61.93;;;34.80;;
6149;SDS011;3106;42.670;23.318;2023-11-22T07:38:13;47.27;;;21.50;;
6149;SDS011;3106;42.670;23.318;2023-11-22T07:40:42;29.50;;;15.70;;
6149;SDS011;3106;42.670;23.318;2023-11-22T07:43:09;42.43;;;16.97;;
6149;SDS011;3106;42.670;23.318;2023-11-22T07:45:36;40.47;;;17.60;;
6149;SDS011;3106;42.670;23.318;2023-11-22T07:48:03;29.30;;;17.20;;
6149;SDS011;3106;42.670;23.318;2023-11-22T07:50:32;31.37;;;16.73;;
6149;SDS011;3106;42.670;23.318;2023-11-22T07:52:59;29.27;;;16.70;;
6149;SDS011;3106;42.670;23.318;2023-11-22T07:55:29;34.20;;;16.60;;
6149;SDS011;3106;42.670;23.318;2023-11-22T07:57:57;29.60;;;16.30;;
6149;SDS011;3106;42.670;23.318;2023-11-22T08:00:24;31.70;;;16.50;;
6149;SDS011;3106;42.670;23.318;2023-11-22T08:02:51;31.43;;;16.87;;
6149;SDS011;3106;42.670;23.318;2023-11-22T08:05:19;25.43;;;15.33;;
6149;SDS011;3106;42.670;23.318;2023-11-22T08:07:50;26.80;;;15.80;;
6149;SDS011;3106;42.670;23.318;2023-11-22T08:10:17;35.70;;;15.97;;
6149;SDS011;3106;42.670;23.318;2023-11-22T08:12:45;28.07;;;15.10;;
6149;SDS011;3106;42.670;23.318;2023-11-22T08:15:13;29.90;;;14.70;;
6149;SDS011;3106;42.670;23.318;2023-11-22T08:17:40;28.47;;;15.93;;
6149;SDS011;3106;42.670;23.318;2023-11-22T08:20:08;30.50;;;16.93;;
6149;SDS011;3106;42.670;23.318;2023-11-22T08:22:38;35.13;;;18.50;;
6149;SDS011;3106;42.670;23.318;2023-11-22T08:25:08;30.63;;;18.57;;
6149;SDS011;3106;42.670;23.318;2023-11-22T08:27:38;28.90;;;17.00;;
6149;SDS011;3106;42.670;23.318;2023-11-22T08:30:05;30.83;;;16.03;;
6149;SDS011;3106;42.670;23.318;2023-11-22T08:32:38;23.43;;;14.20;;
6149;SDS011;3106;42.670;23.318;2023-11-22T08:35:06;26.63;;;15.70;;
6149;SDS011;3106;42.670;23.318;2023-11-22T08:37:34;39.70;;;18.57;;
6149;SDS011;3106;42.670;23.318;2023-11-22T08:40:03;33.33;;;18.33;;
6149;SDS011;3106;42.670;23.318;2023-11-22T08:42:34;36.93;;;19.87;;
6149;SDS011;3106;42.670;23.318;2023-11-22T08:45:02;62.00;;;28.00;;
6149;SDS011;3106;42.670;23.318;2023-11-22T08:47:29;41.87;;;22.40;;
6149;SDS011;3106;42.670;23.318;2023-11-22T08:49:56;47.00;;;23.47;;
6149;SDS011;3106;42.670;23.318;2023-11-22T08:52:24;48.83;;;23.20;;
6149;SDS011;3106;42.670;23.318;2023-11-22T08:54:51;36.47;;;17.57;;
6149;SDS011;3106;42.670;23.318;2023-11-22T08:57:19;39.00;;;18.53;;
6149;SDS011;3106;42.670;23.318;2023-11-22T08:59:46;30.17;;;16.87;;
6149;SDS011;3106;42.670;23.318;2023-11-22T09:02:13;31.23;;;17.50;;
6149;SDS011;3106;42.670;23.318;2023-11-22T09:04:40;33.03;;;17.60;;
6149;SDS011;3106;42.670;23.318;2023-11-22T09:07:08;36.10;;;17.80;;
6149;SDS011;3106;42.670;23.318;2023-11-22T09:09:36;66.07;;;31.73;;
6149;SDS011;3106;42.670;23.318;2023-11-22T09:12:03;56.40;;;31.37;;
6149;SDS011;3106;42.670;23.318;2023-11-22T09:14:39;36.87;;;21.03;;
6149;SDS011;3106;42.670;23.318;2023-11-22T09:17:07;46.10;;;24.40;;
6149;SDS011;3106;42.670;23.318;2023-11-22T09:19:34;48.40;;;24.23;;
6149;SDS011;3106;42.670;23.318;2023-11-22T09:22:02;46.57;;;25.07;;
6149;SDS011;3106;42.670;23.318;2023-11-22T09:24:31;55.43;;;27.00;;
6149;SDS011;3106;42.670;23.318;2023-11-22T09:27:02;68.83;;;35.60;;
6149;SDS011;3106;42.670;23.318;2023-11-22T09:29:31;49.80;;;26.13;;
6149;SDS011;3106;42.670;23.318;2023-11-22T09:32:01;48.00;;;25.20;;
6149;SDS011;3106;42.670;23.318;2023-11-22T09:34:28;47.27;;;26.40;;
6149;SDS011;3106;42.670;23.318;2023-11-22T09:36:56;44.53;;;24.40;;
6149;SDS011;3106;42.670;23.318;2023-11-22T09:39:24;42.60;;;22.67;;
6149;SDS011;3106;42.670;23.318;2023-11-22T09:41:51;43.53;;;23.10;;
6149;SDS011;3106;42.670;23.318;2023-11-22T09:44:19;44.77;;;23.73;;
6149;SDS011;3106;42.670;23.318;2023-11-22T09:46:48;58.13;;;23.20;;
6149;SDS011;3106;42.670;23.318;2023-11-22T09:49:19;42.17;;;20.43;;
6149;SDS011;3106;42.670;23.318;2023-11-22T09:51:50;45.23;;;22.03;;
6149;SDS011;3106;42.670;23.318;2023-11-22T09:54:21;45.03;;;22.83;;
6149;SDS011;3106;42.670;23.318;2023-11-22T09:56:56;35.60;;;19.97;;
6149;SDS011;3106;42.670;23.318;2023-11-22T09:59:28;43.70;;;20.90;;
6149;SDS011;3106;42.670;23.318;2023-11-22T10:01:57;39.03;;;18.80;;
6149;SDS011;3106;42.670;23.318;2023-11-22T10:04:27;38.23;;;21.07;;
6149;SDS011;3106;42.670;23.318;2023-11-22T10:06:56;50.30;;;23.07;;
6149;SDS011;3106;42.670;23.318;2023-11-22T10:09:25;47.77;;;24.63;;
6149;SDS011;3106;42.670;23.318;2023-11-22T10:11:57;47.53;;;24.60;;
6149;SDS011;3106;42.670;23.318;2023-11-22T10:14:25;53.53;;;27.53;;
6149;SDS011;3106;42.670;23.318;2023-11-22T10:16:58;40.20;;;22.63;;
6149;SDS011;3106;42.670;23.318;2023-11-22T10:19:27;41.20;;;20.90;;
6149;SDS011;3106;42.670;23.318;2023-11-22T10:22:04;42.77;;;21.90;;
6149;SDS011;3106;42.670;23.318;2023-11-22T10:24:32;42.13;;;20.43;;
6149;SDS011;3106;42.670;23.318;2023-11-22T10:27:00;44.80;;;22.27;;
6149;SDS011;3106;42.670;23.318;2023-11-22T10:29:27;44.27;;;24.00;;
6149;SDS011;3106;42.670;23.318;2023-11-22T10:31:57;43.67;;;21.33;;
6149;SDS011;3106;42.670;23.318;2023-11-22T10:34:24;56.63;;;25.70;;
6149;SDS011;3106;42.670;23.318;2023-11-22T10:36:53;61.03;;;29.57;;
6149;SDS011;3106;42.670;23.318;2023-11-22T10:39:22;56.00;;;27.27;;
6149;SDS011;3106;42.670;23.318;2023-11-22T10:41:51;58.07;;;33.00;;
6149;SDS011;3106;42.670;23.318;2023-11-22T10:44:19;50.37;;;25.60;;
6149;SDS011;3106;42.670;23.318;2023-11-22T10:46:47;45.37;;;22.07;;
6149;SDS011;3106;42.670;23.318;2023-11-22T10:49:16;39.77;;;22.63;;
6149;SDS011;3106;42.670;23.318;2023-11-22T10:51:44;50.23;;;25.77;;
6149;SDS011;3106;42.670;23.318;2023-11-22T10:54:18;55.00;;;24.10;;
6149;SDS011;3106;42.670;23.318;2023-11-22T10:56:48;42.67;;;25.10;;
6149;SDS011;3106;42.670;23.318;2023-11-22T10:59:19;47.90;;;25.37;;
6149;SDS011;3106;42.670;23.318;2023-11-22T11:01:49;49.80;;;23.83;;
6149;SDS011;3106;42.670;23.318;2023-11-22T11:04:20;41.63;;;24.07;;
6149;SDS011;3106;42.670;23.318;2023-11-22T11:06:51;49.57;;;25.17;;
6149;SDS011;3106;42.670;23.318;2023-11-22T11:09:23;68.47;;;25.80;;
6149;SDS011;3106;42.670;23.318;2023-11-22T11:11:54;44.97;;;24.40;;
6149;SDS011;3106;42.670;23.318;2023-11-22T11:14:23;40.23;;;22.97;;
6149;SDS011;3106;42.670;23.318;2023-11-22T11:16:51;44.70;;;23.40;;
6149;SDS011;3106;42.670;23.318;2023-11-22T11:19:19;42.50;;;22.90;;
6149;SDS011;3106;42.670;23.318;2023-11-22T11:21:49;40.17;;;23.23;;
6149;SDS011;3106;42.670;23.318;2023-11-22T11:24:16;44.17;;;24.10;;
6149;SDS011;3106;42.670;23.318;2023-11-22T11:26:47;42.33;;;23.50;;
6149;SDS011;3106;42.670;23.318;2023-11-22T11:29:30;49.27;;;23.23;;
6149;SDS011;3106;42.670;23.318;2023-11-22T11:31:58;38.20;;;21.30;;
6149;SDS011;3106;42.670;23.318;2023-11-22T11:34:26;44.83;;;26.43;;
6149;SDS011;3106;42.670;23.318;2023-11-22T11:36:54;41.40;;;23.00;;
6149;SDS011;3106;42.670;23.318;2023-11-22T11:39:24;39.67;;;23.27;;
6149;SDS011;3106;42.670;23.318;2023-11-22T11:42:08;41.63;;;23.10;;
6149;SDS011;3106;42.670;23.318;2023-11-22T11:44:36;46.77;;;24.00;;
6149;SDS011;3106;42.670;23.318;2023-11-22T11:47:19;41.63;;;22.47;;
6149;SDS011;3106;42.670;23.318;2023-11-22T11:49:46;48.80;;;23.50;;
6149;SDS011;3106;42.670;23.318;2023-11-22T11:52:16;40.13;;;22.37;;
6149;SDS011;3106;42.670;23.318;2023-11-22T11:54:44;45.10;;;23.93;;
6149;SDS011;3106;42.670;23.318;2023-11-22T11:57:12;50.57;;;26.30;;
6149;SDS011;3106;42.670;23.318;2023-11-22T11:59:46;49.27;;;22.80;;
6149;SDS011;3106;42.670;23.318;2023-11-22T12:02:14;42.80;;;22.50;;
6149;SDS011;3106;42.670;23.318;2023-11-22T12:04:42;37.60;;;22.53;;
6149;SDS011;3106;42.670;23.318;2023-11-22T12:07:10;40.77;;;22.53;;
6149;SDS011;3106;42.670;23.318;2023-11-22T12:09:38;43.40;;;22.97;;
6149;SDS011;3106;42.670;23.318;2023-11-22T12:12:06;57.40;;;28.37;;
6149;SDS011;3106;42.670;23.318;2023-11-22T12:14:34;46.13;;;24.27;;
6149;SDS011;3106;42.670;23.318;2023-11-22T12:17:01;75.13;;;34.10;;
6149;SDS011;3106;42.670;23.318;2023-11-22T12:19:31;43.77;;;22.23;;
6149;SDS011;3106;42.670;23.318;2023-11-22T12:21:58;45.43;;;22.70;;
6149;SDS011;3106;42.670;23.318;2023-11-22T12:24:28;42.43;;;22.57;;
6149;SDS011;3106;42.670;23.318;2023-11-22T12:26:55;64.00;;;34.37;;
6149;SDS011;3106;42.670;23.318;2023-11-22T12:29:23;48.17;;;27.30;;
6149;SDS011;3106;42.670;23.318;2023-11-22T12:31:51;48.50;;;26.10;;
6149;SDS011;3106;42.670;23.318;2023-11-22T12:34:20;51.97;;;30.50;;
6149;SDS011;3106;42.670;23.318;2023-11-22T12:36:49;65.33;;;32.90;;
6149;SDS011;3106;42.670;23.318;2023-11-22T12:39:16;58.00;;;32.90;;
6149;SDS011;3106;42.670;23.318;2023-11-22T12:41:47;59.90;;;31.63;;
6149;SDS011;3106;42.670;23.318;2023-11-22T12:44:16;58.50;;;32.97;;
6149;SDS011;3106;42.670;23.318;2023-11-22T12:46:46;57.07;;;32.73;;
6149;SDS011;3106;42.670;23.318;2023-11-22T12:49:23;60.40;;;35.40;;
6149;SDS011;3106;42.670;23.318;2023-11-22T12:51:50;81.47;;;39.07;;
6149;SDS011;3106;42.670;23.318;2023-11-22T12:54:19;67.67;;;37.80;;
6149;SDS011;3106;42.670;23.318;2023-11-22T12:56:48;68.70;;;39.90;;
6149;SDS011;3106;42.670;23.318;2023-11-22T12:59:16;66.53;;;37.00;;
6149;SDS011;3106;42.670;23.318;2023-11-22T13:01:44;68.97;;;39.40;;
6149;SDS011;3106;42.670;23.318;2023-11-22T13:04:11;61.33;;;34.33;;
6149;SDS011;3106;42.670;23.318;2023-11-22T13:06:40;64.50;;;34.83;;
6149;SDS011;3106;42.670;23.318;2023-11-22T13:09:07;77.17;;;35.20;;
6149;SDS011;3106;42.670;23.318;2023-11-22T13:11:40;63.67;;;33.93;;
6149;SDS011;3106;42.670;23.318;2023-11-22T13:14:08;55.20;;;32.13;;
6149;SDS011;3106;42.670;23.318;2023-11-22T13:16:34;60.50;;;34.03;;
6149;SDS011;3106;42.670;23.318;2023-11-22T13:19:04;50.00;;;28.63;;
6149;SDS011;3106;42.670;23.318;2023-11-22T13:21:31;59.27;;;30.23;;
6149;SDS011;3106;42.670;23.318;2023-11-22T13:24:00;60.87;;;31.37;;
6149;SDS011;3106;42.670;23.318;2023-11-22T13:26:27;49.57;;;27.20;;
6149;SDS011;3106;42.670;23.318;2023-11-22T13:28:54;51.10;;;28.83;;
6149;SDS011;3106;42.670;23.318;2023-11-22T13:31:23;55.07;;;29.30;;
6149;SDS011;3106;42.670;23.318;2023-11-22T13:33:50;53.00;;;29.43;;
6149;SDS011;3106;42.670;23.318;2023-11-22T13:36:17;61.50;;;30.53;;
6149;SDS011;3106;42.670;23.318;2023-11-22T13:38:45;52.00;;;28.50;;
6149;SDS011;3106;42.670;23.318;2023-11-22T13:41:13;54.03;;;26.90;;
6149;SDS011;3106;42.670;23.318;2023-11-22T13:43:40;43.77;;;25.83;;
6149;SDS011;3106;42.670;23.318;2023-11-22T13:46:07;51.63;;;27.23;;
6149;SDS011;3106;42.670;23.318;2023-11-22T13:48:35;47.30;;;25.70;;
6149;SDS011;3106;42.670;23.318;2023-11-22T13:51:02;47.33;;;24.87;;
6149;SDS011;3106;42.670;23.318;2023-11-22T13:53:30;43.17;;;25.77;;
6149;SDS011;3106;42.670;23.318;2023-11-22T13:55:59;56.90;;;26.47;;
6149;SDS011;3106;42.670;23.318;2023-11-22T13:58:34;48.27;;;26.40;;
6149;SDS011;3106;42.670;23.318;2023-11-22T14:01:01;55.83;;;27.37;;
6149;SDS011;3106;42.670;23.318;2023-11-22T14:03:31;57.03;;;22.67;;
6149;SDS011;3106;42.670;23.318;2023-11-22T14:05:58;41.87;;;23.17;;
6149;SDS011;3106;42.670;23.318;2023-11-22T14:08:25;33.73;;;19.50;;
6149;SDS011;3106;42.670;23.318;2023-11-22T14:10:52;39.30;;;22.63;;
6149;SDS011;3106;42.670;23.318;2023-11-22T14:13:19;40.30;;;20.10;;
6149;SDS011;3106;42.670;23.318;2023-11-22T14:15:48;35.00;;;18.77;;
6149;SDS011;3106;42.670;23.318;2023-11-22T14:18:16;46.67;;;21.87;;
6149;SDS011;3106;42.670;23.318;2023-11-22T14:20:43;42.57;;;24.00;;
6149;SDS011;3106;42.670;23.318;2023-11-22T14:23:09;42.37;;;19.20;;
6149;SDS011;3106;42.670;23.318;2023-11-22T14:25:36;30.17;;;16.70;;
6149;SDS011;3106;42.670;23.318;2023-11-22T14:28:03;40.83;;;17.67;;
6149;SDS011;3106;42.670;23.318;2023-11-22T14:30:30;30.03;;;15.40;;
6149;SDS011;3106;42.670;23.318;2023-11-22T14:33:02;28.10;;;14.53;;
6149;SDS011;3106;42.670;23.318;2023-11-22T14:35:32;28.43;;;14.80;;
6149;SDS011;3106;42.670;23.318;2023-11-22T14:43:03;28.57;;;12.40;;